createdAt,value
2019-05-19T00:01:36.601Z,99365.11
2019-05-19T00:04:10.810Z,99359.65
2019-05-19T00:06:45.121Z,99359.17
2019-05-19T00:09:19.814Z,99363.53
2019-05-19T00:11:53.795Z,99363.88
2019-05-19T00:14:28.054Z,99358.58
2019-05-19T00:17:02.363Z,99354.82
2019-05-19T00:19:36.550Z,99357.84
2019-05-19T00:22:10.865Z,99354.53
2019-05-19T00:24:45.092Z,99359.83
2019-05-19T00:27:19.027Z,99377.90
2019-05-19T00:29:53.090Z,99381.13
2019-05-19T00:32:26.364Z,99375.63
2019-05-19T00:35:00.528Z,99373.84
2019-05-19T00:37:34.904Z,99369.58
2019-05-19T00:40:09.367Z,99375.25
2019-05-19T00:42:43.530Z,99382.25
2019-05-19T00:45:18.798Z,99379.42
2019-05-19T00:47:52.908Z,99372.89
2019-05-19T00:50:26.258Z,99371.09
2019-05-19T00:53:00.231Z,99368.45
2019-05-19T00:55:33.658Z,99368.63
2019-05-19T00:58:08.381Z,99367.14
2019-05-19T01:00:42.559Z,99369.11
2019-05-19T01:03:16.808Z,99363.73
2019-05-19T01:05:50.977Z,99356.34
2019-05-19T01:08:24.330Z,99355.02
2019-05-19T01:10:58.398Z,99356.73
2019-05-19T01:13:31.597Z,99342.73
2019-05-19T01:16:05.836Z,99347.94
2019-05-19T01:18:40.121Z,99348.31
2019-05-19T01:21:16.001Z,99346.14
2019-05-19T01:23:50.323Z,99341.13
2019-05-19T01:26:24.867Z,99346.69
2019-05-19T01:28:58.941Z,99340.45
2019-05-19T01:31:32.185Z,99339.88
2019-05-19T01:34:07.809Z,99345.09
2019-05-19T01:36:41.827Z,99346.50
2019-05-19T01:39:15.626Z,99345.94
2019-05-19T01:41:49.809Z,99344.14
2019-05-19T01:44:24.383Z,99343.77
2019-05-19T01:46:58.662Z,99346.32
2019-05-19T01:49:32.814Z,99344.44
2019-05-19T01:52:07.010Z,99349.73
2019-05-19T01:54:41.174Z,99347.46
2019-05-19T01:57:14.605Z,99347.81
2019-05-19T01:59:48.720Z,99350.36
2019-05-19T02:02:21.968Z,99342.89
2019-05-19T02:05:16.416Z,99348.19
2019-05-19T02:07:50.349Z,99343.48
2019-05-19T02:10:24.400Z,99339.52
2019-05-19T02:12:57.820Z,99341.66
2019-05-19T02:15:32.102Z,99347.08
2019-05-19T02:18:06.193Z,99354.64
2019-05-19T02:20:39.704Z,99361.08
2019-05-19T02:23:14.184Z,99368.72
2019-05-19T02:25:48.358Z,99373.17
2019-05-19T02:28:22.391Z,99390.72
2019-05-19T02:30:56.673Z,99385.59
2019-05-19T02:33:29.887Z,99393.50
2019-05-19T02:36:03.811Z,99388.77
2019-05-19T02:38:37.940Z,99387.83
2019-05-19T02:41:12.329Z,99386.88
2019-05-19T02:43:47.177Z,99385.77
2019-05-19T02:46:22.803Z,99393.63
2019-05-19T02:48:58.364Z,99391.53
2019-05-19T02:51:34.940Z,99390.52
2019-05-19T02:54:10.162Z,99381.46
2019-05-19T02:56:46.962Z,99387.52
2019-05-19T02:59:23.411Z,99383.16
2019-05-19T03:02:02.020Z,99385.08
2019-05-19T03:04:35.965Z,99379.02
2019-05-19T03:07:09.923Z,99384.33
2019-05-19T03:09:43.754Z,99389.80
2019-05-19T03:12:17.652Z,99395.67
2019-05-19T03:14:51.482Z,99396.73
2019-05-19T03:17:25.533Z,99393.78
2019-05-19T03:19:58.671Z,99392.66
2019-05-19T03:22:32.493Z,99378.64
2019-05-19T03:25:09.478Z,99380.34
2019-05-19T03:27:43.367Z,99377.90
2019-05-19T03:30:27.949Z,99377.13
2019-05-19T03:33:09.282Z,99376.94
2019-05-19T03:35:43.138Z,99381.11
2019-05-19T03:38:17.106Z,99382.72
2019-05-19T03:40:51.061Z,99380.23
2019-05-19T03:43:25.009Z,99372.57
2019-05-19T03:45:58.896Z,99359.33
2019-05-19T03:48:32.824Z,99358.38
2019-05-19T03:51:06.784Z,99355.73
2019-05-19T03:53:40.817Z,99358.19
2019-05-19T03:56:14.718Z,99363.30
2019-05-19T03:58:48.847Z,99359.62
2019-05-19T04:01:22.005Z,99356.69
2019-05-19T04:03:55.935Z,99358.92
2019-05-19T04:06:29.897Z,99357.03
2019-05-19T04:09:05.530Z,99361.92
2019-05-19T04:11:39.402Z,99356.33
2019-05-19T04:14:13.280Z,99359.90
2019-05-19T04:16:48.678Z,99350.70
2019-05-19T04:19:22.600Z,99353.31
2019-05-19T04:21:56.459Z,99356.53
2019-05-19T04:24:30.403Z,99353.94
2019-05-19T04:27:04.380Z,99359.70
2019-05-19T04:29:39.563Z,99355.20
2019-05-19T04:32:13.178Z,99362.64
2019-05-19T04:34:46.203Z,99356.84
2019-05-19T04:37:20.036Z,99356.11
2019-05-19T04:39:54.067Z,99351.77
2019-05-19T04:42:27.928Z,99347.90
2019-05-19T04:45:01.772Z,99341.70
2019-05-19T04:47:35.836Z,99340.11
2019-05-19T04:50:09.153Z,99348.07
2019-05-19T04:52:43.197Z,99349.02
2019-05-19T04:55:17.107Z,99347.94
2019-05-19T04:57:51.101Z,99335.31
2019-05-19T05:00:24.194Z,99342.75
2019-05-19T05:02:58.002Z,99339.63
2019-05-19T05:05:31.984Z,99339.96
2019-05-19T05:08:05.821Z,99338.39
2019-05-19T05:10:39.733Z,99335.44
2019-05-19T05:13:13.721Z,99338.03
2019-05-19T05:15:47.558Z,99333.09
2019-05-19T05:18:21.460Z,99341.35
2019-05-19T05:20:55.445Z,99337.13
2019-05-19T05:23:28.802Z,99338.20
2019-05-19T05:26:02.899Z,99338.13
2019-05-19T05:28:36.494Z,99337.87
2019-05-19T05:31:10.312Z,99338.25
2019-05-19T05:33:44.276Z,99335.70
2019-05-19T05:36:18.721Z,99325.66
2019-05-19T05:38:52.620Z,99331.14
2019-05-19T05:41:26.510Z,99336.08
2019-05-19T05:44:01.059Z,99325.16
2019-05-19T05:46:34.988Z,99328.77
2019-05-19T05:49:08.966Z,99326.33
2019-05-19T05:51:42.116Z,99332.48
2019-05-19T05:54:16.350Z,99336.73
2019-05-19T05:56:51.743Z,99332.60
2019-05-19T05:59:25.802Z,99342.55
2019-05-19T06:01:59.819Z,99343.20
2019-05-19T06:04:33.096Z,99338.26
2019-05-19T06:07:07.144Z,99339.22
2019-05-19T06:09:40.326Z,99333.88
2019-05-19T06:12:14.304Z,99331.09
2019-05-19T06:14:47.412Z,99341.77
2019-05-19T06:17:21.399Z,99334.69
2019-05-19T06:19:54.929Z,99338.42
2019-05-19T06:22:29.172Z,99341.66
2019-05-19T06:25:03.209Z,99336.16
2019-05-19T06:27:36.454Z,99332.64
2019-05-19T06:30:10.822Z,99334.42
2019-05-19T06:32:49.446Z,99330.89
2019-05-19T06:35:23.593Z,99329.14
2019-05-19T06:37:56.899Z,99327.81
2019-05-19T06:40:30.991Z,99327.57
2019-05-19T06:43:05.522Z,99325.31
2019-05-19T06:45:38.947Z,99334.29
2019-05-19T06:48:14.293Z,99328.71
2019-05-19T06:50:48.307Z,99329.80
2019-05-19T06:53:21.584Z,99334.90
2019-05-19T06:55:55.589Z,99330.12
2019-05-19T06:58:29.006Z,99326.84
2019-05-19T07:01:02.999Z,99323.00
2019-05-19T07:03:39.076Z,99321.42
2019-05-19T07:06:12.845Z,99327.91
2019-05-19T07:08:46.768Z,99320.06
2019-05-19T07:11:20.992Z,99318.73
2019-05-19T07:13:55.208Z,99317.03
2019-05-19T07:16:29.188Z,99321.61
2019-05-19T07:19:03.221Z,99315.55
2019-05-19T07:21:37.549Z,99325.41
2019-05-19T07:24:11.569Z,99321.04
2019-05-19T07:26:45.545Z,99316.19
2019-05-19T07:29:20.640Z,99317.77
2019-05-19T07:31:56.123Z,99323.56
2019-05-19T07:34:30.447Z,99318.38
2019-05-19T07:37:04.485Z,99321.53
2019-05-19T07:39:37.904Z,99323.02
2019-05-19T07:42:11.904Z,99313.93
2019-05-19T07:44:45.695Z,99318.81
2019-05-19T07:47:19.974Z,99318.81
2019-05-19T07:49:54.211Z,99322.57
2019-05-19T07:52:28.623Z,99326.45
2019-05-19T07:55:02.868Z,99328.99
2019-05-19T07:57:36.965Z,99332.75
2019-05-19T08:00:10.629Z,99334.45
2019-05-19T08:02:44.496Z,99344.03
2019-05-19T08:05:18.438Z,99346.23
2019-05-19T08:07:52.577Z,99348.53
2019-05-19T08:10:26.648Z,99337.14
2019-05-19T08:12:59.828Z,99340.63
2019-05-19T08:15:33.956Z,99344.51
2019-05-19T08:18:07.943Z,99342.84
2019-05-19T08:20:42.093Z,99351.56
2019-05-19T08:23:16.136Z,99355.20
2019-05-19T08:25:49.606Z,99358.63
2019-05-19T08:28:23.602Z,99362.62
2019-05-19T08:30:57.564Z,99353.03
2019-05-19T08:33:31.590Z,99351.97
2019-05-19T08:36:04.809Z,99340.20
2019-05-19T08:38:39.096Z,99336.19
2019-05-19T08:41:13.265Z,99330.48
2019-05-19T08:43:47.423Z,99334.97
2019-05-19T08:46:21.548Z,99338.73
2019-05-19T08:48:58.204Z,99337.77
2019-05-19T08:51:32.010Z,99345.13
2019-05-19T08:54:14.238Z,99338.34
2019-05-19T08:56:42.194Z,99344.41
2019-05-19T08:59:16.308Z,99337.38
2019-05-19T09:01:50.446Z,99348.89
2019-05-19T09:04:24.413Z,99359.31
2019-05-19T09:06:58.343Z,99356.92
2019-05-19T09:09:32.356Z,99361.76
2019-05-19T09:12:05.636Z,99357.62
2019-05-19T09:14:39.751Z,99357.90
2019-05-19T09:17:13.716Z,99355.70
2019-05-19T09:19:47.631Z,99348.58
2019-05-19T09:22:21.556Z,99356.20
2019-05-19T09:24:55.474Z,99355.22
2019-05-19T09:27:29.360Z,99350.38
2019-05-19T09:30:03.489Z,99353.04
2019-05-19T09:32:36.697Z,99350.27
2019-05-19T09:35:10.868Z,99353.52
2019-05-19T09:37:47.864Z,99353.64
2019-05-19T09:40:21.937Z,99353.77
2019-05-19T09:42:55.986Z,99354.00
2019-05-19T09:45:30.073Z,99350.25
2019-05-19T09:48:03.460Z,99342.39
2019-05-19T09:50:37.344Z,99340.43
2019-05-19T09:53:11.332Z,99336.28
2019-05-19T09:55:45.142Z,99339.20
2019-05-19T09:58:20.241Z,99336.27
2019-05-19T10:00:54.545Z,99343.42
2019-05-19T10:03:27.714Z,99336.39
2019-05-19T10:06:01.651Z,99334.21
2019-05-19T10:08:39.186Z,99334.05
2019-05-19T10:11:22.513Z,99334.78
2019-05-19T10:13:56.782Z,99328.08
2019-05-19T10:16:30.960Z,99339.36
2019-05-19T10:19:05.210Z,99344.91
2019-05-19T10:21:39.264Z,99345.78
2019-05-19T10:24:12.563Z,99336.80
2019-05-19T10:26:47.286Z,99340.53
2019-05-19T10:29:21.257Z,99336.89
2019-05-19T10:31:55.285Z,99342.91
2019-05-19T10:34:28.458Z,99339.82
2019-05-19T10:37:02.368Z,99332.98
2019-05-19T10:39:36.892Z,99341.83
2019-05-19T10:42:11.398Z,99332.91
2019-05-19T10:44:45.465Z,99329.67
2019-05-19T10:47:18.810Z,99324.33
2019-05-19T10:49:53.092Z,99330.86
2019-05-19T10:52:27.137Z,99332.56
2019-05-19T10:55:00.626Z,99322.56
2019-05-19T10:57:34.808Z,99321.97
2019-05-19T11:00:09.457Z,99317.18
2019-05-19T11:02:43.910Z,99322.58
2019-05-19T11:05:18.012Z,99328.19
2019-05-19T11:07:51.458Z,99325.77
2019-05-19T11:10:27.387Z,99331.47
2019-05-19T11:13:01.463Z,99326.23
2019-05-19T11:15:34.695Z,99335.94
2019-05-19T11:18:08.694Z,99335.02
2019-05-19T11:20:42.206Z,99332.16
2019-05-19T11:23:16.605Z,99335.76
2019-05-19T11:25:51.869Z,99330.13
2019-05-19T11:28:26.210Z,99336.23
2019-05-19T11:31:00.194Z,99322.53
2019-05-19T11:33:34.340Z,99338.84
2019-05-19T11:36:09.023Z,99333.67
2019-05-19T11:38:43.332Z,99334.53
2019-05-19T11:41:17.516Z,99338.79
2019-05-19T11:43:51.815Z,99336.40
2019-05-19T11:46:26.274Z,99340.61
2019-05-19T11:49:01.940Z,99341.94
2019-05-19T11:51:35.765Z,99338.05
2019-05-19T11:54:09.990Z,99332.17
2019-05-19T11:56:44.216Z,99327.20
2019-05-19T11:59:18.148Z,99326.30
2019-05-19T12:01:52.368Z,99318.17
2019-05-19T12:04:26.450Z,99323.37
2019-05-19T12:06:59.821Z,99323.98
2019-05-19T12:09:33.811Z,99323.68
2019-05-19T12:12:07.081Z,99321.98
2019-05-19T12:14:41.342Z,99319.23
2019-05-19T12:17:15.655Z,99326.18
2019-05-19T12:19:49.913Z,99317.60
2019-05-19T12:22:24.052Z,99315.91
2019-05-19T12:24:57.692Z,99313.44
2019-05-19T12:27:31.526Z,99315.55
2019-05-19T12:30:08.451Z,99312.77
2019-05-19T12:32:42.420Z,99303.78
2019-05-19T12:35:16.937Z,99312.77
2019-05-19T12:37:51.624Z,99297.72
2019-05-19T12:40:25.608Z,99303.78
2019-05-19T12:42:59.569Z,99297.78
2019-05-19T12:45:33.847Z,99299.89
2019-05-19T12:48:08.019Z,99294.55
2019-05-19T12:50:41.102Z,99302.56
2019-05-19T12:53:15.314Z,99302.20
2019-05-19T12:55:49.676Z,99289.64
2019-05-19T12:58:23.718Z,99294.27
2019-05-19T13:00:57.020Z,99292.59
2019-05-19T13:03:31.143Z,99296.31
2019-05-19T13:06:05.282Z,99295.27
2019-05-19T13:08:39.825Z,99296.06
2019-05-19T13:11:13.872Z,99300.92
2019-05-19T13:13:47.312Z,99301.41
2019-05-19T13:16:21.678Z,99297.41
2019-05-19T13:18:56.063Z,99300.20
2019-05-19T13:21:30.060Z,99292.67
2019-05-19T13:24:03.219Z,99293.50
2019-05-19T13:26:37.141Z,99287.01
2019-05-19T13:29:11.342Z,99280.08
2019-05-19T13:31:46.203Z,99286.39
2019-05-19T13:34:21.327Z,99290.27
2019-05-19T13:36:57.188Z,99281.48
2019-05-19T13:39:31.888Z,99283.16
2019-05-19T13:42:06.531Z,99277.39
2019-05-19T13:44:40.685Z,99269.20
2019-05-19T13:47:15.152Z,99276.02
2019-05-19T13:49:49.653Z,99267.88
2019-05-19T13:52:23.955Z,99264.22
2019-05-19T13:54:58.503Z,99253.28
2019-05-19T13:57:32.558Z,99250.80
2019-05-19T14:00:08.106Z,99247.39
2019-05-19T14:02:42.197Z,99240.38
2019-05-19T14:05:15.588Z,99234.29
2019-05-19T14:07:49.778Z,99231.32
2019-05-19T14:10:23.879Z,99225.16
2019-05-19T14:12:57.186Z,99231.23
2019-05-19T14:15:31.570Z,99231.75
2019-05-19T14:18:05.622Z,99236.66
2019-05-19T14:20:38.858Z,99230.16
2019-05-19T14:23:13.065Z,99232.70
2019-05-19T14:25:47.314Z,99224.13
2019-05-19T14:28:21.246Z,99234.97
2019-05-19T14:30:55.369Z,99230.03
2019-05-19T14:33:29.356Z,99222.09
2019-05-19T14:36:03.722Z,99226.19
2019-05-19T14:38:39.457Z,99225.75
2019-05-19T14:41:13.559Z,99224.55
2019-05-19T14:43:47.610Z,99214.06
2019-05-19T14:46:20.948Z,99218.97
2019-05-19T14:48:55.076Z,99218.91
2019-05-19T14:51:29.657Z,99206.91
2019-05-19T14:54:04.424Z,99216.16
2019-05-19T14:56:39.821Z,99209.84
2019-05-19T14:59:14.006Z,99211.05
2019-05-19T15:01:48.320Z,99214.31
2019-05-19T15:04:22.910Z,99219.26
2019-05-19T15:06:58.264Z,99213.39
2019-05-19T15:09:33.058Z,99209.41
2019-05-19T15:12:07.366Z,99207.16
2019-05-19T15:14:41.776Z,99202.91
2019-05-19T15:17:16.026Z,99205.72
2019-05-19T15:19:50.607Z,99204.02
2019-05-19T15:22:25.149Z,99200.12
2019-05-19T15:24:59.692Z,99198.85
2019-05-19T15:27:33.842Z,99200.78
2019-05-19T15:30:13.198Z,99202.05
2019-05-19T15:32:45.770Z,99188.22
2019-05-19T15:35:20.011Z,99191.86
2019-05-19T15:37:54.081Z,99189.52
2019-05-19T15:40:27.352Z,99189.52
2019-05-19T15:43:01.871Z,99185.79
2019-05-19T15:45:36.234Z,99178.12
2019-05-19T15:48:09.458Z,99176.94
2019-05-19T15:50:43.710Z,99174.32
2019-05-19T15:53:17.778Z,99173.36
2019-05-19T15:55:51.117Z,99181.61
2019-05-19T15:58:25.234Z,99182.34
2019-05-19T16:00:58.475Z,99190.77
2019-05-19T16:03:32.460Z,99187.03
2019-05-19T16:06:06.908Z,99182.69
2019-05-19T16:08:41.766Z,99188.31
2019-05-19T16:11:15.875Z,99191.63
2019-05-19T16:13:49.438Z,99188.89
2019-05-19T16:16:23.679Z,99182.39
2019-05-19T16:18:57.839Z,99182.20
2019-05-19T16:21:32.308Z,99176.38
2019-05-19T16:24:06.753Z,99181.62
2019-05-19T16:26:40.860Z,99176.78
2019-05-19T16:29:14.339Z,99171.36
2019-05-19T16:31:48.884Z,99169.45
2019-05-19T16:34:23.081Z,99170.02
2019-05-19T16:36:57.175Z,99176.95
2019-05-19T16:39:30.347Z,99175.61
2019-05-19T16:42:04.456Z,99174.52
2019-05-19T16:44:37.772Z,99176.24
2019-05-19T16:47:12.024Z,99177.45
2019-05-19T16:49:46.015Z,99174.06
2019-05-19T16:52:20.576Z,99177.69
2019-05-19T16:55:12.754Z,99183.98
2019-05-19T16:57:46.681Z,99187.75
2019-05-19T17:00:21.233Z,99183.38
2019-05-19T17:02:55.106Z,99188.81
2019-05-19T17:05:28.915Z,99185.79
2019-05-19T17:08:03.021Z,99183.25
2019-05-19T17:10:36.959Z,99178.66
2019-05-19T17:13:10.848Z,99181.20
2019-05-19T17:15:44.750Z,99182.80
2019-05-19T17:18:18.587Z,99184.73
2019-05-19T17:20:52.670Z,99191.02
2019-05-19T17:23:25.908Z,99185.92
2019-05-19T17:25:59.804Z,99187.86
2019-05-19T17:28:34.289Z,99186.64
2019-05-19T17:31:11.429Z,99183.38
2019-05-19T17:33:45.696Z,99172.86
2019-05-19T17:36:20.202Z,99180.13
2019-05-19T17:38:54.231Z,99172.60
2019-05-19T17:41:27.806Z,99171.64
2019-05-19T17:44:02.195Z,99171.64
2019-05-19T17:46:36.473Z,99174.91
2019-05-19T17:49:10.942Z,99179.26
2019-05-19T17:51:45.168Z,99176.23
2019-05-19T17:54:20.228Z,99178.17
2019-05-19T17:56:55.278Z,99175.50
2019-05-19T17:59:29.878Z,99179.50
2019-05-19T18:02:04.124Z,99174.17
2019-05-19T18:04:38.246Z,99178.17
2019-05-19T18:07:11.684Z,99177.10
2019-05-19T18:09:45.561Z,99173.83
2019-05-19T18:12:19.464Z,99169.48
2019-05-19T18:14:54.155Z,99168.39
2019-05-19T18:17:28.374Z,99168.14
2019-05-19T18:20:02.710Z,99170.33
2019-05-19T18:22:36.960Z,99160.27
2019-05-19T18:25:11.288Z,99156.64
2019-05-19T18:27:45.450Z,99158.34
2019-05-19T18:30:20.082Z,99155.31
2019-05-19T18:32:54.228Z,99162.09
2019-05-19T18:35:28.470Z,99160.51
2019-05-19T18:38:04.182Z,99161.38
2019-05-19T18:40:38.354Z,99159.55
2019-05-19T18:43:13.414Z,99164.03
2019-05-19T18:45:48.964Z,99168.27
2019-05-19T18:48:23.598Z,99169.86
2019-05-19T18:50:58.113Z,99171.41
2019-05-19T18:53:32.483Z,99163.89
2019-05-19T18:56:07.914Z,99157.36
2019-05-19T18:58:42.141Z,99159.05
2019-05-19T19:01:16.571Z,99163.53
2019-05-19T19:03:50.854Z,99169.00
2019-05-19T19:06:26.781Z,99167.89
2019-05-19T19:09:00.976Z,99171.63
2019-05-19T19:11:35.391Z,99163.17
2019-05-19T19:14:09.760Z,99163.28
2019-05-19T19:16:44.022Z,99172.59
2019-05-19T19:19:18.316Z,99173.19
2019-05-19T19:21:52.727Z,99171.62
2019-05-19T19:24:26.887Z,99165.09
2019-05-19T19:27:00.039Z,99167.31
2019-05-19T19:29:34.280Z,99169.86
2019-05-19T19:32:08.364Z,99172.13
2019-05-19T19:34:41.624Z,99179.88
2019-05-19T19:37:16.208Z,99168.25
2019-05-19T19:39:50.422Z,99173.42
2019-05-19T19:42:24.542Z,99177.04
2019-05-19T19:44:57.924Z,99179.33
2019-05-19T19:47:31.864Z,99173.19
2019-05-19T19:50:06.710Z,99173.67
2019-05-19T19:52:40.756Z,99183.20
2019-05-19T19:55:13.996Z,99178.73
2019-05-19T19:57:48.109Z,99182.87
2019-05-19T20:00:43.126Z,99185.53
2019-05-19T20:03:17.423Z,99181.17
2019-05-19T20:05:51.489Z,99189.89
2019-05-19T20:08:24.746Z,99189.03
2019-05-19T20:10:58.740Z,99188.55
2019-05-19T20:13:32.774Z,99186.71
2019-05-19T20:16:05.992Z,99192.03
2019-05-19T20:18:39.870Z,99190.33
2019-05-19T20:21:13.831Z,99190.95
2019-05-19T20:23:47.947Z,99192.50
2019-05-19T20:26:21.214Z,99198.04
2019-05-19T20:28:55.091Z,99190.28
2019-05-19T20:31:31.451Z,99189.20
2019-05-19T20:34:05.217Z,99193.41
2019-05-19T20:36:39.422Z,99193.64
2019-05-19T20:39:13.478Z,99193.89
2019-05-19T20:41:46.815Z,99196.02
2019-05-19T20:44:20.923Z,99198.05
2019-05-19T20:46:54.114Z,99200.32
2019-05-19T20:49:28.123Z,99197.30
2019-05-19T20:52:01.722Z,99203.41
2019-05-19T20:54:35.630Z,99197.25
2019-05-19T20:57:09.499Z,99194.95
2019-05-19T20:59:43.467Z,99200.47
2019-05-19T21:02:17.309Z,99197.08
2019-05-19T21:04:51.458Z,99191.05
2019-05-19T21:07:25.404Z,99189.21
2019-05-19T21:09:59.414Z,99188.61
2019-05-19T21:12:33.288Z,99189.09
2019-05-19T21:15:07.493Z,99181.70
2019-05-19T21:17:41.427Z,99179.16
2019-05-19T21:20:15.457Z,99181.08
2019-05-19T21:22:49.649Z,99177.20
2019-05-19T21:25:22.834Z,99172.39
2019-05-19T21:27:56.878Z,99177.34
2019-05-19T21:30:30.108Z,99185.89
2019-05-19T21:33:04.108Z,99180.69
2019-05-19T21:35:37.356Z,99184.87
2019-05-19T21:38:11.203Z,99180.15
2019-05-19T21:40:45.126Z,99180.39
2019-05-19T21:43:19.142Z,99184.86
2019-05-19T21:45:52.305Z,99184.11
2019-05-19T21:48:33.485Z,99184.11
2019-05-19T21:51:07.351Z,99179.56
2019-05-19T21:53:41.497Z,99188.36
2019-05-19T21:56:14.592Z,99184.48
2019-05-19T21:58:48.821Z,99189.78
2019-05-19T22:01:23.755Z,99185.06
2019-05-19T22:03:57.992Z,99182.52
2019-05-19T22:06:32.706Z,99182.14
2019-05-19T22:09:07.103Z,99186.13
2019-05-19T22:11:40.946Z,99182.62
2019-05-19T22:14:15.088Z,99181.28
2019-05-19T22:16:48.282Z,99154.06
2019-05-19T22:19:22.380Z,99185.27
2019-05-19T22:21:55.408Z,99180.20
2019-05-19T22:24:29.428Z,99187.31
2019-05-19T22:27:02.508Z,99186.57
2019-05-19T22:29:36.426Z,99187.52
2019-05-19T22:32:10.319Z,99186.41
2019-05-19T22:34:44.317Z,99176.38
2019-05-19T22:37:17.567Z,99178.69
2019-05-19T22:39:51.581Z,99181.07
2019-05-19T22:42:24.670Z,99184.41
2019-05-19T22:44:58.691Z,99189.34
2019-05-19T22:47:31.776Z,99183.90
2019-05-19T22:50:08.036Z,99178.22
2019-05-19T22:52:41.857Z,99176.15
2019-05-19T22:55:16.063Z,99174.08
2019-05-19T22:57:49.982Z,99174.66
2019-05-19T23:00:25.716Z,99172.58
2019-05-19T23:02:59.529Z,99173.56
2019-05-19T23:05:33.407Z,99172.81
2019-05-19T23:08:07.374Z,99181.73
2019-05-19T23:10:40.519Z,99173.88
2019-05-19T23:13:14.504Z,99173.60
2019-05-19T23:15:48.556Z,99173.80
2019-05-19T23:18:21.664Z,99173.09
2019-05-19T23:20:55.530Z,99170.06
2019-05-19T23:23:29.320Z,99168.37
2019-05-19T23:26:03.222Z,99165.91
2019-05-19T23:28:37.033Z,99167.82
2019-05-19T23:31:10.917Z,99164.66
2019-05-19T23:33:44.712Z,99161.63
2019-05-19T23:36:18.567Z,99157.66
2019-05-19T23:38:52.398Z,99155.58
2019-05-19T23:41:26.275Z,99159.19
2019-05-19T23:44:00.079Z,99159.76
2019-05-19T23:46:34.035Z,99157.11
2019-05-19T23:49:07.862Z,99152.76
2019-05-19T23:51:41.880Z,99156.36
2019-05-19T23:54:14.958Z,99156.59
2019-05-19T23:56:48.833Z,99151.39
2019-05-19T23:59:22.698Z,99152.92
